sensor_id;sensor_type;location;lat;lon;timestamp;P1;durP1;ratioP1;P2;durP2;ratioP2
65377;SDS011;51982;51.042;13.806;2023-04-06T00:00:01;7.90;;;3.92;;
65377;SDS011;51982;51.042;13.806;2023-04-06T00:02:26;6.40;;;3.65;;
65377;SDS011;51982;51.042;13.806;2023-04-06T00:04:52;10.93;;;3.97;;
65377;SDS011;51982;51.042;13.806;2023-04-06T00:07:17;8.73;;;3.88;;
65377;SDS011;51982;51.042;13.806;2023-04-06T00:09:42;5.15;;;3.35;;
65377;SDS011;51982;51.042;13.806;2023-04-06T00:12:07;6.20;;;3.45;;
65377;SDS011;51982;51.042;13.806;2023-04-06T00:14:32;6.07;;;3.20;;
65377;SDS011;51982;51.042;13.806;2023-04-06T00:16:58;6.07;;;3.47;;
65377;SDS011;51982;51.042;13.806;2023-04-06T00:19:23;7.60;;;3.72;;
65377;SDS011;51982;51.042;13.806;2023-04-06T00:21:48;6.93;;;3.50;;
65377;SDS011;51982;51.042;13.806;2023-04-06T00:24:13;7.60;;;3.58;;
65377;SDS011;51982;51.042;13.806;2023-04-06T00:26:39;6.90;;;3.15;;
65377;SDS011;51982;51.042;13.806;2023-04-06T00:29:04;6.28;;;3.33;;
65377;SDS011;51982;51.042;13.806;2023-04-06T00:31:29;7.20;;;3.38;;
65377;SDS011;51982;51.042;13.806;2023-04-06T00:33:54;4.55;;;3.10;;
65377;SDS011;51982;51.042;13.806;2023-04-06T00:36:20;5.90;;;3.20;;
65377;SDS011;51982;51.042;13.806;2023-04-06T00:38:45;6.63;;;3.33;;
65377;SDS011;51982;51.042;13.806;2023-04-06T00:41:10;6.10;;;3.50;;
65377;SDS011;51982;51.042;13.806;2023-04-06T00:43:36;9.57;;;3.10;;
65377;SDS011;51982;51.042;13.806;2023-04-06T00:46:01;6.53;;;3.25;;
65377;SDS011;51982;51.042;13.806;2023-04-06T00:48:26;4.75;;;2.95;;
65377;SDS011;51982;51.042;13.806;2023-04-06T00:50:52;6.53;;;3.17;;
65377;SDS011;51982;51.042;13.806;2023-04-06T00:53:17;5.22;;;3.33;;
65377;SDS011;51982;51.042;13.806;2023-04-06T00:55:42;4.65;;;3.00;;
65377;SDS011;51982;51.042;13.806;2023-04-06T00:58:07;5.60;;;2.93;;
65377;SDS011;51982;51.042;13.806;2023-04-06T01:00:33;9.70;;;3.38;;
65377;SDS011;51982;51.042;13.806;2023-04-06T01:02:58;6.68;;;3.10;;
65377;SDS011;51982;51.042;13.806;2023-04-06T01:05:23;6.20;;;3.30;;
65377;SDS011;51982;51.042;13.806;2023-04-06T01:07:49;5.60;;;3.03;;
65377;SDS011;51982;51.042;13.806;2023-04-06T01:10:26;9.47;;;3.13;;
65377;SDS011;51982;51.042;13.806;2023-04-06T01:12:53;5.22;;;2.95;;
65377;SDS011;51982;51.042;13.806;2023-04-06T01:15:18;5.53;;;2.65;;
65377;SDS011;51982;51.042;13.806;2023-04-06T01:17:45;8.65;;;3.28;;
65377;SDS011;51982;51.042;13.806;2023-04-06T01:20:10;6.38;;;2.83;;
65377;SDS011;51982;51.042;13.806;2023-04-06T01:22:36;5.05;;;2.70;;
65377;SDS011;51982;51.042;13.806;2023-04-06T01:25:01;5.07;;;3.05;;
65377;SDS011;51982;51.042;13.806;2023-04-06T01:27:26;7.68;;;3.30;;
65377;SDS011;51982;51.042;13.806;2023-04-06T01:29:53;6.03;;;3.45;;
65377;SDS011;51982;51.042;13.806;2023-04-06T01:32:18;5.03;;;2.88;;
65377;SDS011;51982;51.042;13.806;2023-04-06T01:34:43;5.05;;;2.88;;
65377;SDS011;51982;51.042;13.806;2023-04-06T01:37:08;4.77;;;2.87;;
65377;SDS011;51982;51.042;13.806;2023-04-06T01:39:34;5.72;;;3.00;;
65377;SDS011;51982;51.042;13.806;2023-04-06T01:41:59;6.00;;;3.60;;
65377;SDS011;51982;51.042;13.806;2023-04-06T01:44:24;6.50;;;3.10;;
65377;SDS011;51982;51.042;13.806;2023-04-06T01:46:50;7.07;;;3.28;;
65377;SDS011;51982;51.042;13.806;2023-04-06T01:49:15;7.32;;;3.83;;
65377;SDS011;51982;51.042;13.806;2023-04-06T01:51:40;5.22;;;3.35;;
65377;SDS011;51982;51.042;13.806;2023-04-06T01:54:05;9.23;;;3.50;;
65377;SDS011;51982;51.042;13.806;2023-04-06T01:56:31;7.68;;;3.47;;
65377;SDS011;51982;51.042;13.806;2023-04-06T01:58:56;6.50;;;2.95;;
65377;SDS011;51982;51.042;13.806;2023-04-06T02:01:21;8.23;;;3.40;;
65377;SDS011;51982;51.042;13.806;2023-04-06T02:03:46;6.00;;;3.33;;
65377;SDS011;51982;51.042;13.806;2023-04-06T02:06:12;5.70;;;2.92;;
65377;SDS011;51982;51.042;13.806;2023-04-06T02:08:37;7.80;;;3.60;;
65377;SDS011;51982;51.042;13.806;2023-04-06T02:11:02;6.10;;;3.30;;
65377;SDS011;51982;51.042;13.806;2023-04-06T02:13:27;7.13;;;3.50;;
65377;SDS011;51982;51.042;13.806;2023-04-06T02:15:53;5.10;;;3.28;;
65377;SDS011;51982;51.042;13.806;2023-04-06T02:18:18;7.55;;;3.50;;
65377;SDS011;51982;51.042;13.806;2023-04-06T02:20:43;8.73;;;3.72;;
65377;SDS011;51982;51.042;13.806;2023-04-06T02:23:09;6.50;;;3.60;;
65377;SDS011;51982;51.042;13.806;2023-04-06T02:25:34;5.93;;;3.70;;
65377;SDS011;51982;51.042;13.806;2023-04-06T02:28:00;8.10;;;4.18;;
65377;SDS011;51982;51.042;13.806;2023-04-06T02:30:25;11.27;;;4.45;;
65377;SDS011;51982;51.042;13.806;2023-04-06T02:32:50;11.13;;;4.55;;
65377;SDS011;51982;51.042;13.806;2023-04-06T02:35:15;11.80;;;5.05;;
65377;SDS011;51982;51.042;13.806;2023-04-06T02:37:40;8.27;;;4.65;;
65377;SDS011;51982;51.042;13.806;2023-04-06T02:40:06;12.82;;;5.57;;
65377;SDS011;51982;51.042;13.806;2023-04-06T02:42:31;14.60;;;6.13;;
65377;SDS011;51982;51.042;13.806;2023-04-06T02:44:57;15.65;;;6.43;;
65377;SDS011;51982;51.042;13.806;2023-04-06T02:47:22;13.52;;;6.10;;
65377;SDS011;51982;51.042;13.806;2023-04-06T02:49:48;10.57;;;4.60;;
65377;SDS011;51982;51.042;13.806;2023-04-06T02:52:13;8.23;;;4.43;;
65377;SDS011;51982;51.042;13.806;2023-04-06T02:54:38;7.28;;;3.65;;
65377;SDS011;51982;51.042;13.806;2023-04-06T02:57:03;6.93;;;3.28;;
65377;SDS011;51982;51.042;13.806;2023-04-06T02:59:29;8.80;;;4.22;;
65377;SDS011;51982;51.042;13.806;2023-04-06T03:01:54;6.47;;;3.47;;
65377;SDS011;51982;51.042;13.806;2023-04-06T03:04:19;6.65;;;3.47;;
65377;SDS011;51982;51.042;13.806;2023-04-06T03:06:47;8.60;;;3.80;;
65377;SDS011;51982;51.042;13.806;2023-04-06T03:09:12;7.43;;;3.45;;
65377;SDS011;51982;51.042;13.806;2023-04-06T03:11:39;5.28;;;3.28;;
65377;SDS011;51982;51.042;13.806;2023-04-06T03:14:04;8.35;;;3.85;;
65377;SDS011;51982;51.042;13.806;2023-04-06T03:16:29;9.77;;;4.05;;
65377;SDS011;51982;51.042;13.806;2023-04-06T03:18:54;6.70;;;3.58;;
65377;SDS011;51982;51.042;13.806;2023-04-06T03:21:20;7.03;;;3.85;;
65377;SDS011;51982;51.042;13.806;2023-04-06T03:23:45;10.82;;;4.10;;
65377;SDS011;51982;51.042;13.806;2023-04-06T03:26:10;7.60;;;4.20;;
65377;SDS011;51982;51.042;13.806;2023-04-06T03:28:36;8.60;;;3.47;;
65377;SDS011;51982;51.042;13.806;2023-04-06T03:31:01;9.32;;;4.00;;
65377;SDS011;51982;51.042;13.806;2023-04-06T03:33:26;11.18;;;4.50;;
65377;SDS011;51982;51.042;13.806;2023-04-06T03:35:54;6.07;;;3.50;;
65377;SDS011;51982;51.042;13.806;2023-04-06T03:38:20;9.43;;;4.03;;
65377;SDS011;51982;51.042;13.806;2023-04-06T03:40:45;7.25;;;4.10;;
65377;SDS011;51982;51.042;13.806;2023-04-06T03:43:10;9.40;;;4.18;;
65377;SDS011;51982;51.042;13.806;2023-04-06T03:45:35;8.20;;;3.85;;
65377;SDS011;51982;51.042;13.806;2023-04-06T03:48:01;6.50;;;3.53;;
65377;SDS011;51982;51.042;13.806;2023-04-06T03:50:26;9.95;;;3.72;;
65377;SDS011;51982;51.042;13.806;2023-04-06T03:52:51;6.53;;;3.75;;
65377;SDS011;51982;51.042;13.806;2023-04-06T03:55:16;7.68;;;4.05;;
65377;SDS011;51982;51.042;13.806;2023-04-06T03:57:42;12.13;;;3.85;;
65377;SDS011;51982;51.042;13.806;2023-04-06T04:00:07;8.55;;;4.05;;
65377;SDS011;51982;51.042;13.806;2023-04-06T04:02:33;7.85;;;3.83;;
65377;SDS011;51982;51.042;13.806;2023-04-06T04:04:58;8.27;;;4.28;;
65377;SDS011;51982;51.042;13.806;2023-04-06T04:07:23;8.43;;;4.18;;
65377;SDS011;51982;51.042;13.806;2023-04-06T04:09:48;7.93;;;3.75;;
65377;SDS011;51982;51.042;13.806;2023-04-06T04:12:13;13.05;;;4.15;;
65377;SDS011;51982;51.042;13.806;2023-04-06T04:14:40;7.10;;;3.78;;
65377;SDS011;51982;51.042;13.806;2023-04-06T04:17:05;6.00;;;3.42;;
65377;SDS011;51982;51.042;13.806;2023-04-06T04:19:30;8.48;;;3.40;;
65377;SDS011;51982;51.042;13.806;2023-04-06T04:21:55;8.48;;;3.80;;
65377;SDS011;51982;51.042;13.806;2023-04-06T04:24:21;7.78;;;3.38;;
65377;SDS011;51982;51.042;13.806;2023-04-06T04:26:46;7.90;;;4.07;;
65377;SDS011;51982;51.042;13.806;2023-04-06T04:29:11;8.38;;;3.95;;
65377;SDS011;51982;51.042;13.806;2023-04-06T04:31:36;7.30;;;4.00;;
65377;SDS011;51982;51.042;13.806;2023-04-06T04:34:02;12.75;;;3.80;;
65377;SDS011;51982;51.042;13.806;2023-04-06T04:36:27;8.15;;;4.30;;
65377;SDS011;51982;51.042;13.806;2023-04-06T04:38:52;7.53;;;3.63;;
65377;SDS011;51982;51.042;13.806;2023-04-06T04:41:17;12.73;;;4.30;;
65377;SDS011;51982;51.042;13.806;2023-04-06T04:43:43;10.82;;;4.00;;
65377;SDS011;51982;51.042;13.806;2023-04-06T04:46:08;8.35;;;4.32;;
65377;SDS011;51982;51.042;13.806;2023-04-06T04:48:33;11.20;;;4.18;;
65377;SDS011;51982;51.042;13.806;2023-04-06T04:50:59;11.18;;;4.10;;
65377;SDS011;51982;51.042;13.806;2023-04-06T04:53:24;11.32;;;4.00;;
65377;SDS011;51982;51.042;13.806;2023-04-06T04:55:50;8.57;;;4.00;;
65377;SDS011;51982;51.042;13.806;2023-04-06T04:58:15;11.15;;;4.13;;
65377;SDS011;51982;51.042;13.806;2023-04-06T05:00:41;8.90;;;3.83;;
65377;SDS011;51982;51.042;13.806;2023-04-06T05:03:11;7.55;;;3.80;;
65377;SDS011;51982;51.042;13.806;2023-04-06T05:05:43;8.38;;;4.15;;
65377;SDS011;51982;51.042;13.806;2023-04-06T05:08:08;11.07;;;4.50;;
65377;SDS011;51982;51.042;13.806;2023-04-06T05:10:34;11.13;;;4.25;;
65377;SDS011;51982;51.042;13.806;2023-04-06T05:13:00;8.23;;;4.05;;
65377;SDS011;51982;51.042;13.806;2023-04-06T05:15:25;7.82;;;4.03;;
65377;SDS011;51982;51.042;13.806;2023-04-06T05:17:50;10.70;;;4.28;;
65377;SDS011;51982;51.042;13.806;2023-04-06T05:20:15;6.55;;;3.80;;
65377;SDS011;51982;51.042;13.806;2023-04-06T05:22:41;6.55;;;3.78;;
65377;SDS011;51982;51.042;13.806;2023-04-06T05:25:06;7.88;;;3.95;;
65377;SDS011;51982;51.042;13.806;2023-04-06T05:27:32;7.47;;;4.13;;
65377;SDS011;51982;51.042;13.806;2023-04-06T05:29:57;7.68;;;3.95;;
65377;SDS011;51982;51.042;13.806;2023-04-06T05:32:22;8.43;;;4.03;;
65377;SDS011;51982;51.042;13.806;2023-04-06T05:34:49;10.93;;;4.32;;
65377;SDS011;51982;51.042;13.806;2023-04-06T05:37:15;11.65;;;4.30;;
65377;SDS011;51982;51.042;13.806;2023-04-06T05:39:40;10.52;;;4.15;;
65377;SDS011;51982;51.042;13.806;2023-04-06T05:42:05;10.95;;;4.28;;
65377;SDS011;51982;51.042;13.806;2023-04-06T05:44:31;8.32;;;4.07;;
65377;SDS011;51982;51.042;13.806;2023-04-06T05:46:56;11.13;;;4.88;;
65377;SDS011;51982;51.042;13.806;2023-04-06T05:49:22;9.88;;;4.70;;
65377;SDS011;51982;51.042;13.806;2023-04-06T05:51:47;9.73;;;4.60;;
65377;SDS011;51982;51.042;13.806;2023-04-06T05:54:12;8.45;;;4.40;;
65377;SDS011;51982;51.042;13.806;2023-04-06T05:56:37;7.97;;;3.70;;
65377;SDS011;51982;51.042;13.806;2023-04-06T05:59:02;7.72;;;4.05;;
65377;SDS011;51982;51.042;13.806;2023-04-06T06:01:28;12.10;;;4.28;;
65377;SDS011;51982;51.042;13.806;2023-04-06T06:03:53;8.88;;;4.60;;
65377;SDS011;51982;51.042;13.806;2023-04-06T06:06:19;11.68;;;4.43;;
65377;SDS011;51982;51.042;13.806;2023-04-06T06:08:44;6.55;;;3.47;;
65377;SDS011;51982;51.042;13.806;2023-04-06T06:11:10;9.20;;;4.18;;
65377;SDS011;51982;51.042;13.806;2023-04-06T06:13:36;8.13;;;4.18;;
65377;SDS011;51982;51.042;13.806;2023-04-06T06:16:01;7.57;;;4.05;;
65377;SDS011;51982;51.042;13.806;2023-04-06T06:18:29;7.38;;;4.18;;
65377;SDS011;51982;51.042;13.806;2023-04-06T06:20:55;6.63;;;4.00;;
65377;SDS011;51982;51.042;13.806;2023-04-06T06:23:20;7.70;;;3.67;;
65377;SDS011;51982;51.042;13.806;2023-04-06T06:25:45;12.02;;;3.50;;
65377;SDS011;51982;51.042;13.806;2023-04-06T06:28:11;7.10;;;4.18;;
65377;SDS011;51982;51.042;13.806;2023-04-06T06:30:36;7.40;;;4.00;;
65377;SDS011;51982;51.042;13.806;2023-04-06T06:33:01;6.27;;;3.60;;
65377;SDS011;51982;51.042;13.806;2023-04-06T06:35:26;7.47;;;3.95;;
65377;SDS011;51982;51.042;13.806;2023-04-06T06:37:52;5.20;;;3.15;;
65377;SDS011;51982;51.042;13.806;2023-04-06T06:40:17;10.57;;;3.90;;
65377;SDS011;51982;51.042;13.806;2023-04-06T06:42:42;12.45;;;4.43;;
65377;SDS011;51982;51.042;13.806;2023-04-06T06:45:08;7.43;;;3.95;;
65377;SDS011;51982;51.042;13.806;2023-04-06T06:47:34;8.82;;;4.10;;
65377;SDS011;51982;51.042;13.806;2023-04-06T06:50:00;10.27;;;4.13;;
65377;SDS011;51982;51.042;13.806;2023-04-06T06:52:26;9.10;;;4.13;;
65377;SDS011;51982;51.042;13.806;2023-04-06T06:54:51;29.38;;;5.13;;
65377;SDS011;51982;51.042;13.806;2023-04-06T06:57:16;12.30;;;4.17;;
65377;SDS011;51982;51.042;13.806;2023-04-06T06:59:41;8.67;;;3.93;;
65377;SDS011;51982;51.042;13.806;2023-04-06T07:02:06;9.57;;;3.87;;
65377;SDS011;51982;51.042;13.806;2023-04-06T07:04:32;8.55;;;4.15;;
65377;SDS011;51982;51.042;13.806;2023-04-06T07:06:57;8.15;;;4.10;;
65377;SDS011;51982;51.042;13.806;2023-04-06T07:09:22;11.63;;;4.85;;
65377;SDS011;51982;51.042;13.806;2023-04-06T07:11:47;7.95;;;4.30;;
65377;SDS011;51982;51.042;13.806;2023-04-06T07:14:14;6.53;;;3.53;;
65377;SDS011;51982;51.042;13.806;2023-04-06T07:16:40;7.57;;;3.90;;
65377;SDS011;51982;51.042;13.806;2023-04-06T07:19:06;10.73;;;4.57;;
65377;SDS011;51982;51.042;13.806;2023-04-06T07:21:31;12.73;;;4.57;;
65377;SDS011;51982;51.042;13.806;2023-04-06T07:23:56;9.30;;;4.22;;
65377;SDS011;51982;51.042;13.806;2023-04-06T07:26:21;10.48;;;3.97;;
65377;SDS011;51982;51.042;13.806;2023-04-06T07:28:47;9.83;;;4.67;;
65377;SDS011;51982;51.042;13.806;2023-04-06T07:31:12;8.60;;;3.93;;
65377;SDS011;51982;51.042;13.806;2023-04-06T07:33:37;9.52;;;3.85;;
65377;SDS011;51982;51.042;13.806;2023-04-06T07:36:02;8.63;;;4.20;;
65377;SDS011;51982;51.042;13.806;2023-04-06T07:38:28;10.40;;;4.30;;
65377;SDS011;51982;51.042;13.806;2023-04-06T07:40:53;9.98;;;4.50;;
65377;SDS011;51982;51.042;13.806;2023-04-06T07:43:18;7.78;;;3.63;;
65377;SDS011;51982;51.042;13.806;2023-04-06T07:45:43;9.30;;;4.23;;
65377;SDS011;51982;51.042;13.806;2023-04-06T07:48:09;7.85;;;4.13;;
65377;SDS011;51982;51.042;13.806;2023-04-06T07:50:34;7.13;;;4.07;;
65377;SDS011;51982;51.042;13.806;2023-04-06T07:53:00;6.38;;;3.65;;
65377;SDS011;51982;51.042;13.806;2023-04-06T07:55:25;8.43;;;3.78;;
65377;SDS011;51982;51.042;13.806;2023-04-06T07:57:51;8.88;;;4.07;;
65377;SDS011;51982;51.042;13.806;2023-04-06T08:00:16;8.25;;;3.90;;
65377;SDS011;51982;51.042;13.806;2023-04-06T08:02:42;8.88;;;3.67;;
65377;SDS011;51982;51.042;13.806;2023-04-06T08:05:07;7.72;;;3.78;;
65377;SDS011;51982;51.042;13.806;2023-04-06T08:07:33;7.57;;;4.00;;
65377;SDS011;51982;51.042;13.806;2023-04-06T08:09:58;5.22;;;3.55;;
65377;SDS011;51982;51.042;13.806;2023-04-06T08:12:23;7.53;;;3.83;;
65377;SDS011;51982;51.042;13.806;2023-04-06T08:14:48;6.85;;;4.05;;
65377;SDS011;51982;51.042;13.806;2023-04-06T08:17:14;9.02;;;4.18;;
65377;SDS011;51982;51.042;13.806;2023-04-06T08:19:39;7.10;;;3.83;;
65377;SDS011;51982;51.042;13.806;2023-04-06T08:22:06;7.00;;;3.45;;
65377;SDS011;51982;51.042;13.806;2023-04-06T08:24:32;6.40;;;3.30;;
65377;SDS011;51982;51.042;13.806;2023-04-06T08:26:57;7.00;;;3.50;;
65377;SDS011;51982;51.042;13.806;2023-04-06T08:29:22;6.97;;;3.80;;
65377;SDS011;51982;51.042;13.806;2023-04-06T08:31:47;7.50;;;4.25;;
65377;SDS011;51982;51.042;13.806;2023-04-06T08:34:13;5.60;;;3.05;;
65377;SDS011;51982;51.042;13.806;2023-04-06T08:36:38;8.00;;;3.20;;
65377;SDS011;51982;51.042;13.806;2023-04-06T08:39:03;7.77;;;3.43;;
65377;SDS011;51982;51.042;13.806;2023-04-06T08:41:28;5.10;;;3.10;;
65377;SDS011;51982;51.042;13.806;2023-04-06T08:44:00;5.82;;;3.40;;
65377;SDS011;51982;51.042;13.806;2023-04-06T08:46:26;6.28;;;3.33;;
65377;SDS011;51982;51.042;13.806;2023-04-06T08:49:05;7.88;;;3.25;;
65377;SDS011;51982;51.042;13.806;2023-04-06T08:51:45;6.68;;;3.70;;
65377;SDS011;51982;51.042;13.806;2023-04-06T08:54:12;7.75;;;3.75;;
65377;SDS011;51982;51.042;13.806;2023-04-06T08:56:38;6.65;;;3.45;;
65377;SDS011;51982;51.042;13.806;2023-04-06T08:59:03;6.72;;;3.72;;
65377;SDS011;51982;51.042;13.806;2023-04-06T09:01:30;4.93;;;3.13;;
65377;SDS011;51982;51.042;13.806;2023-04-06T09:03:57;6.88;;;3.75;;
65377;SDS011;51982;51.042;13.806;2023-04-06T09:06:25;11.20;;;3.15;;
65377;SDS011;51982;51.042;13.806;2023-04-06T09:08:53;4.65;;;3.00;;
65377;SDS011;51982;51.042;13.806;2023-04-06T09:13:14;5.63;;;2.97;;
65377;SDS011;51982;51.042;13.806;2023-04-06T09:15:40;5.13;;;3.15;;
65377;SDS011;51982;51.042;13.806;2023-04-06T09:18:05;6.47;;;3.53;;
65377;SDS011;51982;51.042;13.806;2023-04-06T09:20:30;5.85;;;2.80;;
65377;SDS011;51982;51.042;13.806;2023-04-06T09:22:56;5.43;;;3.40;;
65377;SDS011;51982;51.042;13.806;2023-04-06T09:25:21;4.30;;;3.17;;
65377;SDS011;51982;51.042;13.806;2023-04-06T09:27:48;5.10;;;2.92;;
65377;SDS011;51982;51.042;13.806;2023-04-06T09:30:15;5.93;;;3.15;;
65377;SDS011;51982;51.042;13.806;2023-04-06T09:32:48;6.75;;;3.40;;
65377;SDS011;51982;51.042;13.806;2023-04-06T09:35:15;5.57;;;3.20;;
65377;SDS011;51982;51.042;13.806;2023-04-06T09:37:42;7.15;;;2.90;;
65377;SDS011;51982;51.042;13.806;2023-04-06T09:40:08;5.93;;;3.03;;
65377;SDS011;51982;51.042;13.806;2023-04-06T09:42:34;11.10;;;3.10;;
65377;SDS011;51982;51.042;13.806;2023-04-06T09:45:00;4.97;;;2.78;;
65377;SDS011;51982;51.042;13.806;2023-04-06T09:47:28;3.33;;;2.15;;
65377;SDS011;51982;51.042;13.806;2023-04-06T09:49:56;5.22;;;2.70;;
65377;SDS011;51982;51.042;13.806;2023-04-06T09:52:24;4.40;;;2.20;;
65377;SDS011;51982;51.042;13.806;2023-04-06T09:54:52;4.35;;;2.72;;
65377;SDS011;51982;51.042;13.806;2023-04-06T09:57:24;7.05;;;2.80;;
65377;SDS011;51982;51.042;13.806;2023-04-06T10:05:02;6.60;;;2.58;;
65377;SDS011;51982;51.042;13.806;2023-04-06T10:07:37;4.45;;;2.72;;
65377;SDS011;51982;51.042;13.806;2023-04-06T10:10:05;3.38;;;2.38;;
65377;SDS011;51982;51.042;13.806;2023-04-06T10:12:31;3.65;;;2.25;;
65377;SDS011;51982;51.042;13.806;2023-04-06T10:14:56;3.90;;;2.38;;
65377;SDS011;51982;51.042;13.806;2023-04-06T10:17:22;4.13;;;2.38;;
65377;SDS011;51982;51.042;13.806;2023-04-06T10:19:53;5.85;;;2.50;;
65377;SDS011;51982;51.042;13.806;2023-04-06T10:22:27;3.75;;;2.40;;
65377;SDS011;51982;51.042;13.806;2023-04-06T10:25:01;3.85;;;2.50;;
65377;SDS011;51982;51.042;13.806;2023-04-06T10:27:27;5.15;;;2.65;;
65377;SDS011;51982;51.042;13.806;2023-04-06T10:29:53;5.68;;;2.67;;
65377;SDS011;51982;51.042;13.806;2023-04-06T10:32:19;3.60;;;2.42;;
65377;SDS011;51982;51.042;13.806;2023-04-06T10:34:44;4.45;;;2.40;;
65377;SDS011;51982;51.042;13.806;2023-04-06T10:37:15;11.45;;;2.65;;
65377;SDS011;51982;51.042;13.806;2023-04-06T10:40:01;5.80;;;2.80;;
65377;SDS011;51982;51.042;13.806;2023-04-06T10:42:37;5.20;;;2.45;;
65377;SDS011;51982;51.042;13.806;2023-04-06T10:45:06;5.63;;;2.92;;
65377;SDS011;51982;51.042;13.806;2023-04-06T10:47:39;4.53;;;2.80;;
65377;SDS011;51982;51.042;13.806;2023-04-06T10:50:05;3.90;;;2.70;;
65377;SDS011;51982;51.042;13.806;2023-04-06T10:52:31;5.03;;;2.50;;
65377;SDS011;51982;51.042;13.806;2023-04-06T10:54:56;4.60;;;2.70;;
65377;SDS011;51982;51.042;13.806;2023-04-06T10:57:28;4.22;;;2.20;;
65377;SDS011;51982;51.042;13.806;2023-04-06T10:59:55;3.42;;;2.28;;
65377;SDS011;51982;51.042;13.806;2023-04-06T11:02:20;3.85;;;2.55;;
65377;SDS011;51982;51.042;13.806;2023-04-06T11:04:53;3.03;;;1.90;;
65377;SDS011;51982;51.042;13.806;2023-04-06T11:07:24;4.90;;;2.15;;
65377;SDS011;51982;51.042;13.806;2023-04-06T11:09:50;1.90;;;1.70;;
65377;SDS011;51982;51.042;13.806;2023-04-06T11:12:25;4.70;;;2.20;;
65377;SDS011;51982;51.042;13.806;2023-04-06T11:14:57;4.25;;;2.20;;
65377;SDS011;51982;51.042;13.806;2023-04-06T11:17:29;3.50;;;2.13;;
65377;SDS011;51982;51.042;13.806;2023-04-06T11:19:56;4.05;;;2.33;;
65377;SDS011;51982;51.042;13.806;2023-04-06T11:22:22;7.57;;;2.50;;
65377;SDS011;51982;51.042;13.806;2023-04-06T11:24:48;3.45;;;2.25;;
65377;SDS011;51982;51.042;13.806;2023-04-06T11:27:13;4.78;;;2.30;;
65377;SDS011;51982;51.042;13.806;2023-04-06T11:29:41;3.13;;;2.20;;
65377;SDS011;51982;51.042;13.806;2023-04-06T11:32:07;3.80;;;2.40;;
65377;SDS011;51982;51.042;13.806;2023-04-06T11:34:34;3.65;;;2.17;;
65377;SDS011;51982;51.042;13.806;2023-04-06T11:37:02;3.78;;;2.60;;
65377;SDS011;51982;51.042;13.806;2023-04-06T11:39:31;3.33;;;2.35;;
65377;SDS011;51982;51.042;13.806;2023-04-06T11:41:58;4.38;;;2.45;;
65377;SDS011;51982;51.042;13.806;2023-04-06T11:44:37;5.43;;;2.60;;
65377;SDS011;51982;51.042;13.806;2023-04-06T11:47:05;3.85;;;2.38;;
65377;SDS011;51982;51.042;13.806;2023-04-06T11:49:32;4.47;;;2.45;;
65377;SDS011;51982;51.042;13.806;2023-04-06T11:52:01;4.00;;;2.63;;
65377;SDS011;51982;51.042;13.806;2023-04-06T11:54:36;4.85;;;2.55;;
65377;SDS011;51982;51.042;13.806;2023-04-06T11:57:05;5.20;;;2.30;;
65377;SDS011;51982;51.042;13.806;2023-04-06T11:59:33;4.65;;;2.90;;
65377;SDS011;51982;51.042;13.806;2023-04-06T12:02:01;4.35;;;2.63;;
65377;SDS011;51982;51.042;13.806;2023-04-06T12:04:27;5.05;;;2.50;;
65377;SDS011;51982;51.042;13.806;2023-04-06T12:06:52;3.65;;;2.70;;
65377;SDS011;51982;51.042;13.806;2023-04-06T12:09:17;4.20;;;2.70;;
65377;SDS011;51982;51.042;13.806;2023-04-06T12:11:43;3.65;;;2.50;;
65377;SDS011;51982;51.042;13.806;2023-04-06T12:14:08;4.90;;;2.40;;
65377;SDS011;51982;51.042;13.806;2023-04-06T12:16:34;4.30;;;2.42;;
65377;SDS011;51982;51.042;13.806;2023-04-06T12:19:00;4.13;;;2.35;;
65377;SDS011;51982;51.042;13.806;2023-04-06T12:21:29;4.45;;;2.40;;
65377;SDS011;51982;51.042;13.806;2023-04-06T12:23:58;3.17;;;2.28;;
65377;SDS011;51982;51.042;13.806;2023-04-06T12:26:24;3.33;;;2.30;;
65377;SDS011;51982;51.042;13.806;2023-04-06T12:28:50;3.47;;;2.35;;
65377;SDS011;51982;51.042;13.806;2023-04-06T12:31:16;5.40;;;2.70;;
65377;SDS011;51982;51.042;13.806;2023-04-06T12:33:48;4.38;;;2.30;;
65377;SDS011;51982;51.042;13.806;2023-04-06T12:36:19;7.60;;;1.67;;
65377;SDS011;51982;51.042;13.806;2023-04-06T12:38:49;3.08;;;1.55;;
65377;SDS011;51982;51.042;13.806;2023-04-06T12:41:15;4.13;;;2.33;;
65377;SDS011;51982;51.042;13.806;2023-04-06T12:43:41;3.95;;;2.08;;
65377;SDS011;51982;51.042;13.806;2023-04-06T12:46:07;2.83;;;2.05;;
65377;SDS011;51982;51.042;13.806;2023-04-06T12:48:33;7.85;;;2.40;;
65377;SDS011;51982;51.042;13.806;2023-04-06T12:51:00;3.47;;;2.30;;
65377;SDS011;51982;51.042;13.806;2023-04-06T12:53:26;3.88;;;2.03;;
65377;SDS011;51982;51.042;13.806;2023-04-06T12:55:55;3.30;;;2.35;;
65377;SDS011;51982;51.042;13.806;2023-04-06T12:58:21;7.05;;;2.30;;
65377;SDS011;51982;51.042;13.806;2023-04-06T13:00:48;5.22;;;2.20;;
65377;SDS011;51982;51.042;13.806;2023-04-06T13:03:15;3.00;;;2.10;;
65377;SDS011;51982;51.042;13.806;2023-04-06T13:05:43;3.47;;;2.38;;
65377;SDS011;51982;51.042;13.806;2023-04-06T13:08:09;5.85;;;2.88;;
65377;SDS011;51982;51.042;13.806;2023-04-06T13:10:35;3.80;;;2.72;;
65377;SDS011;51982;51.042;13.806;2023-04-06T13:13:00;5.47;;;2.53;;
65377;SDS011;51982;51.042;13.806;2023-04-06T13:15:25;3.37;;;2.47;;
65377;SDS011;51982;51.042;13.806;2023-04-06T13:17:50;4.70;;;2.60;;
65377;SDS011;51982;51.042;13.806;2023-04-06T13:20:16;3.77;;;2.43;;
65377;SDS011;51982;51.042;13.806;2023-04-06T13:22:41;4.75;;;2.55;;
65377;SDS011;51982;51.042;13.806;2023-04-06T13:25:06;5.13;;;2.80;;
65377;SDS011;51982;51.042;13.806;2023-04-06T13:27:32;4.60;;;2.80;;
65377;SDS011;51982;51.042;13.806;2023-04-06T13:29:59;5.38;;;2.80;;
65377;SDS011;51982;51.042;13.806;2023-04-06T13:32:24;6.28;;;2.80;;
65377;SDS011;51982;51.042;13.806;2023-04-06T13:34:50;3.70;;;2.40;;
65377;SDS011;51982;51.042;13.806;2023-04-06T13:37:18;4.03;;;2.30;;
65377;SDS011;51982;51.042;13.806;2023-04-06T13:39:44;4.55;;;2.60;;
65377;SDS011;51982;51.042;13.806;2023-04-06T13:42:09;4.60;;;2.70;;
65377;SDS011;51982;51.042;13.806;2023-04-06T13:44:35;7.72;;;2.10;;
65377;SDS011;51982;51.042;13.806;2023-04-06T13:47:00;3.30;;;2.03;;
65377;SDS011;51982;51.042;13.806;2023-04-06T13:49:25;5.95;;;2.15;;
65377;SDS011;51982;51.042;13.806;2023-04-06T13:51:51;3.58;;;2.40;;
65377;SDS011;51982;51.042;13.806;2023-04-06T13:54:16;3.03;;;2.30;;
65377;SDS011;51982;51.042;13.806;2023-04-06T13:56:42;4.78;;;2.50;;
65377;SDS011;51982;51.042;13.806;2023-04-06T13:59:07;3.40;;;2.13;;
65377;SDS011;51982;51.042;13.806;2023-04-06T14:01:32;3.20;;;2.23;;
65377;SDS011;51982;51.042;13.806;2023-04-06T14:03:57;4.93;;;2.43;;
65377;SDS011;51982;51.042;13.806;2023-04-06T14:06:22;3.55;;;2.50;;
65377;SDS011;51982;51.042;13.806;2023-04-06T14:08:48;3.67;;;2.40;;
65377;SDS011;51982;51.042;13.806;2023-04-06T14:11:13;3.47;;;2.40;;
65377;SDS011;51982;51.042;13.806;2023-04-06T14:13:39;3.40;;;2.45;;
65377;SDS011;51982;51.042;13.806;2023-04-06T14:16:04;5.15;;;2.55;;
65377;SDS011;51982;51.042;13.806;2023-04-06T14:18:30;3.08;;;2.28;;
65377;SDS011;51982;51.042;13.806;2023-04-06T14:20:56;4.30;;;2.58;;
65377;SDS011;51982;51.042;13.806;2023-04-06T14:23:22;6.50;;;2.55;;
65377;SDS011;51982;51.042;13.806;2023-04-06T14:25:51;5.65;;;2.50;;
65377;SDS011;51982;51.042;13.806;2023-04-06T14:28:16;4.13;;;2.38;;
65377;SDS011;51982;51.042;13.806;2023-04-06T14:30:42;5.25;;;2.40;;
65377;SDS011;51982;51.042;13.806;2023-04-06T14:33:07;4.07;;;2.50;;